aviador You're here:

SKLT Decoded Metar

LETICIA in COLOMBIA
Report Time2018-07-22 02:00:00
UTC Time2018-07-22 02:58:43
Flight Rules ifr IFR
WindVRB at 02 kt
Visibility7000 m
Phenomena:Light Rain
Clouds:Broken 008 Hf
Overcast 070 Hf
Ceiling800 ft
Temp22°C (ISA +8)
Dew Point22°C (100% RH)
QNH1014 hPa
Density Alt1,470 ft
Elevation276 ft
Report Wrong Elevation
Raw Report
SKLT 220200Z VRB02KT 7000 -RA BKN008 OVC070 22/22 A2994=

Extra information for SKLT:More info

Metar Taf Metar & Taf Last 4 Metars F.Rules Stats Wind Profile Meteogram Temp Stats Airport Information Weather charts Add Link Nearby VenuesMetar ALERT Operation Metar Decoded Social comments